Time;durP1;ratioP1;P1;durP2;ratioP2;P2;SDS_P1;SDS_P2;PMS_P1;PMS_P2;Temp;Humidity;BMP_temperature;BMP_pressure;BME280_temperature;BME280_humidity;BME280_pressure;Samples;Min_cycle;Max_cycle;Signal;HPM_P1;HPM_P2
2022/03/04 00:02:01;;;;;;;149.57;43.60;;;;;;;-1.41;80.08;102506.16;5034795;28;21013;-47
2022/03/04 00:04:30;;;;;;;211.07;48.70;;;;;;;-1.36;78.75;102501.50;5034461;28;20563;-49
2022/03/04 00:06:57;;;;;;;147.80;45.17;;;;;;;-1.31;78.14;102503.88;5034783;28;20527;-45
2022/03/04 00:09:25;;;;;;;246.77;48.67;;;;;;;-1.29;79.12;102509.91;5034727;28;20534;-44
2022/03/04 00:11:54;;;;;;;117.50;41.50;;;;;;;-1.29;79.03;102507.28;5034558;28;20523;-48
2022/03/04 00:14:22;;;;;;;152.60;42.37;;;;;;;-1.28;79.47;102508.97;5034413;28;20496;-48
2022/03/04 00:16:49;;;;;;;185.73;48.33;;;;;;;-1.26;80.04;102505.38;5034763;28;20775;-44
2022/03/04 00:19:17;;;;;;;286.20;48.73;;;;;;;-1.25;79.26;102511.44;5034500;28;20535;-45
2022/03/04 00:21:48;;;;;;;202.73;44.40;;;;;;;-1.24;78.47;102506.13;5034574;28;20480;-47
2022/03/04 00:24:17;;;;;;;194.13;45.27;;;;;;;-1.19;78.72;102508.50;5033883;28;20562;-42
2022/03/04 00:26:46;;;;;;;243.53;50.40;;;;;;;-1.14;77.43;102519.59;5034734;28;20432;-47
2022/03/04 00:29:16;;;;;;;295.00;59.27;;;;;;;-1.08;76.80;102510.59;5034322;28;20531;-49
2022/03/04 00:31:46;;;;;;;69.17;37.77;;;;;;;-1.09;78.40;102511.50;5033959;28;20426;-42
2022/03/04 00:34:13;;;;;;;299.50;54.13;;;;;;;-1.06;78.38;102514.81;5033805;28;21011;-47
2022/03/04 00:36:41;;;;;;;239.07;47.77;;;;;;;-1.06;78.79;102516.56;5034216;28;20438;-49
2022/03/04 00:39:12;;;;;;;272.40;47.07;;;;;;;-1.09;80.06;102514.97;5034375;28;20436;-49
2022/03/04 00:41:40;;;;;;;161.67;40.17;;;;;;;-1.04;79.19;102517.34;5034354;28;20478;-49
2022/03/04 00:44:08;;;;;;;151.17;42.43;;;;;;;-0.99;77.86;102523.22;5033694;28;20547;-47
2022/03/04 00:46:38;;;;;;;161.67;40.63;;;;;;;-1.02;79.42;102518.13;5033955;28;20944;-42
2022/03/04 00:49:05;;;;;;;128.43;36.63;;;;;;;-0.98;79.61;102510.00;5033938;28;20468;-44
2022/03/04 00:51:33;;;;;;;117.97;37.77;;;;;;;-0.95;79.13;102514.25;5034256;28;20443;-47
2022/03/04 00:54:01;;;;;;;159.50;39.03;;;;;;;-0.92;78.44;102517.56;5033423;28;20559;-44
2022/03/04 00:56:28;;;;;;;90.70;35.80;;;;;;;-0.88;78.00;102510.38;5034132;28;21007;-44
2022/03/04 00:58:56;;;;;;;127.10;37.80;;;;;;;-0.86;79.08;102509.38;5033772;28;20432;-47
2022/03/04 01:01:24;;;;;;;116.83;35.30;;;;;;;-0.85;79.12;102503.22;5033786;28;20486;-48
2022/03/04 01:03:53;;;;;;;155.30;40.17;;;;;;;-0.86;80.70;102509.38;5033208;28;20468;-45
2022/03/04 01:06:21;;;;;;;215.23;40.73;;;;;;;-0.83;80.56;102509.22;5033990;28;20471;-47
2022/03/04 01:08:49;;;;;;;180.17;37.80;;;;;;;-0.82;80.91;102504.84;5033599;28;20547;-48
2022/03/04 01:11:17;;;;;;;286.40;47.07;;;;;;;-0.78;80.15;102514.22;5033814;28;20428;-48
2022/03/04 01:13:44;;;;;;;113.10;36.27;;;;;;;-0.77;79.51;102516.75;5033050;28;20460;-47
2022/03/04 01:16:12;;;;;;;169.47;39.77;;;;;;;-0.74;80.31;102516.59;5033399;28;20523;-44
2022/03/04 01:18:40;;;;;;;203.90;42.90;;;;;;;-0.76;81.10;102507.97;5033435;28;20495;-44
2022/03/04 01:21:09;;;;;;;231.30;45.83;;;;;;;-0.71;80.54;102508.56;5033532;28;20432;-44
2022/03/04 01:23:36;;;;;;;247.33;42.50;;;;;;;-0.68;79.54;102516.28;5032908;28;20543;-47
2022/03/04 01:26:04;;;;;;;171.20;39.17;;;;;;;-0.65;78.46;102507.41;5033365;28;20456;-47
2022/03/04 01:28:32;;;;;;;116.63;37.67;;;;;;;-0.61;78.22;102511.56;5033142;28;20530;-44
2022/03/04 01:31:00;;;;;;;392.37;57.87;;;;;;;-0.58;78.04;102509.63;5033129;28;20511;-43
2022/03/04 01:33:28;;;;;;;218.20;43.67;;;;;;;-0.58;79.85;102512.25;5032888;28;20453;-45
2022/03/04 01:35:56;;;;;;;304.80;48.20;;;;;;;-0.52;80.11;102507.59;5033163;28;20997;-47
2022/03/04 01:38:25;;;;;;;205.50;43.03;;;;;;;-0.51;79.73;102501.44;5033039;28;20440;-47
2022/03/04 01:40:52;;;;;;;223.67;46.47;;;;;;;-0.54;81.49;102502.47;5033099;28;20527;-46
2022/03/04 01:43:20;;;;;;;268.57;48.57;;;;;;;-0.57;82.31;102503.44;5031300;28;20472;-45
2022/03/04 01:45:48;;;;;;;184.80;39.97;;;;;;;-0.62;83.84;102495.00;5033043;28;20516;-46
2022/03/04 01:48:18;;;;;;;286.10;49.30;;;;;;;-0.61;82.56;102491.44;5013179;28;20479;-45
2022/03/04 01:50:48;;;;;;;232.87;41.50;;;;;;;-0.63;83.36;102495.91;5013819;28;20520;-47
2022/03/04 01:53:15;;;;;;;238.90;42.40;;;;;;;-0.68;84.59;102492.69;5012669;28;20898;-47
2022/03/04 01:55:44;;;;;;;167.83;38.53;;;;;;;-0.71;84.19;102492.84;5013136;28;20532;-46
2022/03/04 01:58:12;;;;;;;191.47;40.90;;;;;;;-0.74;85.28;102490.41;5012806;28;20527;-46
2022/03/04 02:00:40;;;;;;;97.07;32.10;;;;;;;-0.80;86.10;102495.97;5012863;28;21017;-45
2022/03/04 02:03:11;;;;;;;118.63;33.93;;;;;;;-0.81;86.51;102501.31;5012847;28;20854;-42
2022/03/04 02:05:39;;;;;;;217.27;44.30;;;;;;;-0.82;85.57;102495.22;5012730;28;20445;-44
2022/03/04 02:08:07;;;;;;;179.90;39.93;;;;;;;-0.85;86.08;102498.00;5012713;28;20803;-44
2022/03/04 02:10:35;;;;;;;117.27;31.50;;;;;;;-0.85;85.26;102498.00;5012671;28;20444;-47
2022/03/04 02:13:04;;;;;;;76.63;34.70;;;;;;;-0.87;86.63;102502.47;5012890;28;20911;-50
2022/03/04 02:15:31;;;;;;;80.07;32.33;;;;;;;-0.87;86.48;102502.47;5012136;28;20465;-47
2022/03/04 02:17:59;;;;;;;99.63;38.60;;;;;;;-0.86;85.48;102506.75;5012541;28;20437;-45
2022/03/04 02:20:30;;;;;;;136.30;40.03;;;;;;;-0.87;86.78;102507.72;5012710;28;20524;-45
2022/03/04 02:22:59;;;;;;;140.17;37.40;;;;;;;-0.91;86.54;102505.31;5012283;28;20564;-44
2022/03/04 02:25:26;;;;;;;98.30;33.70;;;;;;;-0.88;86.71;102502.53;5012089;28;20476;-44
2022/03/04 02:27:54;;;;;;;145.60;35.20;;;;;;;-0.87;86.55;102507.72;5012501;28;20437;-47
2022/03/04 02:30:22;;;;;;;110.50;35.10;;;;;;;-0.91;87.61;102498.31;5012505;28;20536;-44
2022/03/04 02:32:49;;;;;;;142.27;39.77;;;;;;;-0.90;87.58;102510.50;5012351;28;20955;-46
2022/03/04 02:35:17;;;;;;;38.93;28.27;;;;;;;-0.94;89.28;102503.72;5011948;28;20519;-47
2022/03/04 02:37:45;;;;;;;79.77;33.40;;;;;;;-0.95;88.84;102503.78;5012226;28;20476;-47
2022/03/04 02:40:15;;;;;;;107.40;34.50;;;;;;;-0.96;88.78;102504.72;5012464;28;20437;-46
2022/03/04 02:42:42;;;;;;;138.53;38.57;;;;;;;-0.95;88.56;102503.78;5012327;28;20769;-45
2022/03/04 02:45:11;;;;;;;105.50;34.50;;;;;;;-0.94;88.31;102505.47;5024351;28;20881;-46
2022/03/04 02:47:38;;;;;;;45.83;30.93;;;;;;;-0.93;88.00;102507.19;5031741;28;20511;-49
2022/03/04 02:50:07;;;;;;;64.27;35.00;;;;;;;-0.91;87.82;102494.84;5031797;28;20531;-49
2022/03/04 02:52:34;;;;;;;213.87;47.63;;;;;;;-0.93;88.58;102499.31;5031864;28;21013;-47
2022/03/04 02:55:02;;;;;;;39.40;29.10;;;;;;;-0.91;88.96;102492.22;5031531;28;20567;-48
2022/03/04 02:57:31;;;;;;;55.27;32.90;;;;;;;-0.90;88.71;102499.16;5031693;28;20867;-48
2022/03/04 02:59:59;;;;;;;111.33;35.30;;;;;;;-0.87;88.49;102497.22;5031742;28;20535;-44
2022/03/04 03:02:26;;;;;;;133.53;38.77;;;;;;;-0.86;89.45;102495.44;5031566;28;20480;-47
2022/03/04 03:04:54;;;;;;;124.17;35.63;;;;;;;-0.86;89.19;102500.66;5031438;28;20949;-44
2022/03/04 03:07:22;;;;;;;120.67;36.27;;;;;;;-0.87;89.72;102494.63;5031695;28;20432;-45
2022/03/04 03:09:49;;;;;;;105.57;34.00;;;;;;;-0.86;89.47;102480.56;5031655;28;20565;-45
2022/03/04 03:12:17;;;;;;;211.53;39.83;;;;;;;-0.85;90.34;102481.41;5031626;28;20972;-46
2022/03/04 03:14:47;;;;;;;64.87;33.00;;;;;;;-0.84;89.87;102496.22;5031078;28;20464;-45
2022/03/04 03:17:14;;;;;;;197.67;37.70;;;;;;;-0.85;90.83;102492.75;5031517;28;20527;-47
2022/03/04 03:19:42;;;;;;;66.97;30.67;;;;;;;-0.85;90.40;102492.75;5031853;28;20531;-44
2022/03/04 03:22:10;;;;;;;210.37;40.83;;;;;;;-0.84;89.90;102489.22;5031610;28;20436;-45
2022/03/04 03:24:37;;;;;;;125.17;39.13;;;;;;;-0.84;90.93;102480.50;5030961;28;20554;-47
2022/03/04 03:27:05;;;;;;;287.60;49.60;;;;;;;-0.87;91.69;102489.38;5031967;28;20443;-43
2022/03/04 03:29:33;;;;;;;484.23;56.17;;;;;;;-0.87;91.19;102497.22;5031279;28;20539;-44
2022/03/04 03:32:01;;;;;;;319.20;43.90;;;;;;;-0.84;90.72;102504.94;5031420;28;20475;-45
2022/03/04 03:34:29;;;;;;;212.27;43.10;;;;;;;-0.85;90.92;102505.84;5030899;28;20478;-44
2022/03/04 03:36:57;;;;;;;227.53;40.27;;;;;;;-0.85;90.82;102503.22;5031614;28;20471;-42
2022/03/04 03:39:25;;;;;;;170.60;38.10;;;;;;;-0.84;91.23;102514.56;5031238;28;20436;-42
2022/03/04 03:41:52;;;;;;;265.83;39.87;;;;;;;-0.85;91.99;102516.31;5031468;28;20998;-42
2022/03/04 03:44:20;;;;;;;400.57;58.13;;;;;;;-0.84;91.63;102517.19;5030741;28;20551;-42
2022/03/04 03:46:48;;;;;;;224.50;40.00;;;;;;;-0.84;92.23;102522.41;5031450;28;20463;-42
2022/03/04 03:49:17;;;;;;;213.10;39.97;;;;;;;-0.85;92.32;102525.94;5031236;28;20436;-43
2022/03/04 03:51:45;;;;;;;265.93;38.57;;;;;;;-0.87;93.41;102526.03;5031414;28;20443;-42
2022/03/04 03:54:13;;;;;;;239.27;40.33;;;;;;;-0.90;93.79;102525.34;5030766;28;20837;-42
2022/03/04 03:56:40;;;;;;;250.03;40.77;;;;;;;-0.94;94.21;102521.19;5031247;28;20833;-47
2022/03/04 03:59:08;;;;;;;193.20;40.67;;;;;;;-0.97;94.50;102516.97;5031137;28;20432;-43
2022/03/04 04:01:36;;;;;;;296.93;44.73;;;;;;;-1.00;94.22;102513.66;5031208;28;20432;-41
2022/03/04 04:04:04;;;;;;;247.70;38.40;;;;;;;-1.05;95.14;102524.38;5030705;28;20468;-42
2022/03/04 04:06:33;;;;;;;220.50;44.43;;;;;;;-1.13;95.82;102523.91;5034142;28;20523;-45
2022/03/04 04:09:02;;;;;;;78.93;28.17;;;;;;;-1.20;96.35;102530.38;5034564;28;20444;-49
2022/03/04 04:11:31;;;;;;;139.30;31.53;;;;;;;-1.29;97.05;102525.63;5034693;28;20448;-44
2022/03/04 04:13:58;;;;;;;69.60;27.57;;;;;;;-1.35;96.90;102520.69;5034163;28;20470;-44
2022/03/04 04:16:26;;;;;;;67.73;28.63;;;;;;;-1.38;96.31;102523.47;5034808;28;20527;-45
2022/03/04 04:18:54;;;;;;;69.53;27.50;;;;;;;-1.38;95.75;102518.22;5034558;28;20809;-42
2022/03/04 04:21:21;;;;;;;47.17;26.93;;;;;;;-1.40;95.86;102518.28;5034765;28;20570;-44
2022/03/04 04:23:50;;;;;;;68.70;30.43;;;;;;;-1.40;95.75;102514.81;5033930;28;20465;-43
2022/03/04 04:26:18;;;;;;;139.57;32.47;;;;;;;-1.40;95.62;102512.19;5034419;28;20433;-45
2022/03/04 04:28:45;;;;;;;165.07;39.73;;;;;;;-1.46;96.28;102512.50;5034519;28;20802;-44
2022/03/04 04:31:13;;;;;;;92.93;31.60;;;;;;;-1.48;96.44;102509.97;5034558;28;20438;-43
2022/03/04 04:33:41;;;;;;;104.40;32.17;;;;;;;-1.48;96.63;102515.22;5033908;28;20460;-44
2022/03/04 04:36:09;;;;;;;134.70;34.10;;;;;;;-1.50;96.24;102506.59;5034488;28;20930;-42
2022/03/04 04:38:38;;;;;;;141.60;30.17;;;;;;;-1.51;96.70;102517.97;5033962;28;20432;-43
2022/03/04 04:41:07;;;;;;;138.80;39.17;;;;;;;-1.53;96.89;102504.13;5034349;28;20432;-42
2022/03/04 04:43:35;;;;;;;124.47;34.93;;;;;;;-1.52;95.96;102516.28;5033515;28;20464;-42
2022/03/04 04:46:03;;;;;;;110.80;34.17;;;;;;;-1.53;96.56;102505.91;5034042;28;20433;-43
2022/03/04 04:48:31;;;;;;;113.50;32.50;;;;;;;-1.52;96.20;102505.81;5033895;28;20432;-44
2022/03/04 04:51:00;;;;;;;181.87;40.87;;;;;;;-1.54;96.64;102504.19;5033922;28;20425;-43
2022/03/04 04:53:30;;;;;;;140.50;34.20;;;;;;;-1.54;96.66;102509.44;5033697;28;20884;-46
2022/03/04 04:55:59;;;;;;;130.93;35.23;;;;;;;-1.50;96.48;102511.84;5034021;28;20432;-47
2022/03/04 04:58:28;;;;;;;88.30;32.60;;;;;;;-1.49;96.13;102505.66;5033353;28;20438;-49
2022/03/04 05:00:56;;;;;;;255.43;38.97;;;;;;;-1.44;95.58;102508.06;5034340;28;20435;-44
2022/03/04 05:03:25;;;;;;;56.03;29.23;;;;;;;-1.44;96.32;102508.06;5033060;28;20480;-42
2022/03/04 05:05:54;;;;;;;183.53;37.03;;;;;;;-1.39;95.87;102512.13;5033892;28;20432;-45
2022/03/04 05:08:24;;;;;;;289.97;38.07;;;;;;;-1.45;96.83;102507.22;5033603;28;20442;-44
2022/03/04 05:10:52;;;;;;;138.27;33.83;;;;;;;-1.48;97.23;102506.50;5033634;28;20434;-45
2022/03/04 05:13:19;;;;;;;154.13;33.93;;;;;;;-1.50;97.50;102510.97;5033137;28;20452;-45
2022/03/04 05:15:49;;;;;;;178.67;33.70;;;;;;;-1.53;97.53;102513.75;5033433;28;20507;-43
2022/03/04 05:18:17;;;;;;;174.40;35.40;;;;;;;-1.57;97.63;102515.66;5033549;28;20462;-46
2022/03/04 05:20:44;;;;;;;118.13;34.23;;;;;;;-1.61;98.10;102518.53;5033650;28;20860;-44
2022/03/04 05:23:58;;;;;;;106.57;31.20;;;;;;;-1.64;98.73;102524.72;5032936;28;20837;-42
2022/03/04 05:26:00;;;;;;;88.63;30.83;;;;;;;-1.70;98.42;102520.63;5033325;28;20527;-42
2022/03/04 05:28:27;;;;;;;132.33;31.57;;;;;;;-1.73;98.00;102515.56;5032916;28;20539;-48
2022/03/04 05:30:57;;;;;;;50.10;27.40;;;;;;;-1.75;98.33;102524.41;5033470;28;20440;-42
2022/03/04 05:33:25;;;;;;;223.03;35.53;;;;;;;-1.83;99.15;102516.09;5032599;28;20456;-46
2022/03/04 05:35:52;;;;;;;139.70;32.50;;;;;;;-1.86;99.12;102524.94;5033266;28;20531;-44
2022/03/04 05:38:20;;;;;;;124.80;33.07;;;;;;;-1.83;97.82;102523.94;5032926;28;20527;-47
2022/03/04 05:40:48;;;;;;;166.33;37.83;;;;;;;-1.81;97.72;102524.69;5032984;28;20432;-45
2022/03/04 05:43:16;;;;;;;87.20;28.93;;;;;;;-1.79;97.92;102520.22;5032358;28;20452;-44
2022/03/04 05:45:43;;;;;;;170.53;34.57;;;;;;;-1.80;97.46;102522.03;5032969;28;20478;-46
2022/03/04 05:48:12;;;;;;;256.37;40.47;;;;;;;-1.81;97.35;102524.69;5032099;28;20440;-44
2022/03/04 05:50:40;;;;;;;270.93;38.87;;;;;;;-1.86;97.79;102524.09;5032993;28;20432;-44
2022/03/04 05:53:08;;;;;;;286.30;46.73;;;;;;;-1.91;97.48;102523.47;5032815;28;21026;-49
2022/03/04 05:55:36;;;;;;;111.77;35.37;;;;;;;-1.92;96.75;102527.00;5032199;28;20819;-44
2022/03/04 05:58:04;;;;;;;194.43;43.73;;;;;;;-1.86;95.95;102531.94;5032770;28;20518;-43
2022/03/04 06:00:31;;;;;;;198.23;38.73;;;;;;;-1.87;95.91;102527.63;5032665;28;20440;-42
2022/03/04 06:03:05;;;;;;;136.00;37.40;;;;;;;-1.82;94.62;102543.91;5032587;28;20986;-43
2022/03/04 06:05:34;;;;;;;199.87;40.50;;;;;;;-1.82;94.99;102536.94;5032223;28;21323;-45
2022/03/04 06:08:01;;;;;;;113.27;35.67;;;;;;;-1.77;93.79;102545.41;5032247;28;20438;-43
2022/03/04 06:10:29;;;;;;;217.17;41.47;;;;;;;-1.73;93.14;102549.56;5032755;28;20436;-44
2022/03/04 06:12:57;;;;;;;164.10;42.83;;;;;;;-1.76;93.42;102548.84;5032607;28;20456;-47
2022/03/04 06:15:25;;;;;;;155.70;40.77;;;;;;;-1.74;93.39;102547.88;5031927;28;20460;-44
2022/03/04 06:17:53;;;;;;;164.70;38.30;;;;;;;-1.69;92.33;102545.03;5032256;28;20432;-43
2022/03/04 06:20:21;;;;;;;147.77;36.60;;;;;;;-1.63;91.50;102546.50;5032260;28;20440;-44
2022/03/04 06:22:50;;;;;;;115.03;35.30;;;;;;;-1.55;90.47;102558.28;5032095;28;20464;-43
2022/03/04 06:25:18;;;;;;;171.23;41.70;;;;;;;-1.46;89.80;102556.97;5031755;28;20567;-45
2022/03/04 06:27:54;;;;;;;135.33;36.80;;;;;;;-1.40;90.45;102552.31;5031758;28;20944;-42
2022/03/04 06:30:21;;;;;;;108.73;35.83;;;;;;;-1.33;90.41;102564.16;5032375;28;20442;-45
2022/03/04 06:32:50;;;;;;;137.40;38.80;;;;;;;-1.26;90.04;102569.97;5032374;28;20448;-48
2022/03/04 06:35:18;;;;;;;137.87;35.27;;;;;;;-1.23;90.64;102570.66;5031659;28;20471;-43
2022/03/04 06:37:46;;;;;;;124.50;34.67;;;;;;;-1.17;90.76;102574.72;5032016;28;20458;-42
2022/03/04 06:40:15;;;;;;;77.87;33.40;;;;;;;-1.18;91.63;102568.66;5032042;28;20424;-45
2022/03/04 06:42:46;;;;;;;143.43;37.00;;;;;;;-1.17;92.34;102566.88;5032123;28;20456;-47
2022/03/04 06:45:13;;;;;;;125.43;34.87;;;;;;;-1.18;92.44;102570.41;5031349;28;20931;-42
2022/03/04 06:47:41;;;;;;;79.43;34.70;;;;;;;-1.20;93.08;102565.25;5031573;28;20438;-47
2022/03/04 06:50:09;;;;;;;119.67;36.13;;;;;;;-1.23;93.82;102561.94;5032137;28;20440;-45
2022/03/04 06:52:37;;;;;;;110.20;34.63;;;;;;;-1.19;93.28;102563.47;5031950;28;20999;-46
2022/03/04 06:55:05;;;;;;;152.17;36.03;;;;;;;-1.12;93.13;102573.56;5031471;28;20829;-42
2022/03/04 06:57:34;;;;;;;84.97;33.70;;;;;;;-1.07;93.42;102570.72;5032118;28;20431;-43
2022/03/04 07:00:03;;;;;;;111.37;35.90;;;;;;;-0.99;93.37;102573.81;5031815;28;20818;-45
2022/03/04 07:02:31;;;;;;;137.83;43.07;;;;;;;-0.98;93.79;102574.63;5031825;28;20432;-44
2022/03/04 07:04:59;;;;;;;77.43;31.70;;;;;;;-0.96;95.49;102583.28;5031133;28;20483;-41
2022/03/04 07:07:27;;;;;;;58.50;29.60;;;;;;;-0.86;93.88;102587.09;5031407;28;20431;-46
2022/03/04 07:09:54;;;;;;;206.43;41.60;;;;;;;-0.78;93.29;102580.56;5031862;28;20436;-44
2022/03/04 07:12:22;;;;;;;76.20;31.10;;;;;;;-0.67;93.07;102582.63;5031620;28;20650;-46
2022/03/04 07:14:51;;;;;;;73.47;31.63;;;;;;;-0.59;93.92;102596.16;5031170;28;20470;-45
2022/03/04 07:17:19;;;;;;;184.63;35.87;;;;;;;-0.52;94.26;102588.84;5031421;28;20949;-43
2022/03/04 07:19:46;;;;;;;161.37;33.27;;;;;;;-0.47;95.53;102586.81;5031469;28;20953;-46
2022/03/04 07:22:14;;;;;;;98.83;29.77;;;;;;;-0.43;95.44;102598.84;5031665;28;20432;-43
2022/03/04 07:24:42;;;;;;;97.53;29.53;;;;;;;-0.41;97.83;102591.72;5030985;28;20492;-43
2022/03/04 07:27:09;;;;;;;126.80;30.47;;;;;;;-0.35;97.14;102594.88;5031335;28;20440;-43
2022/03/04 07:29:37;;;;;;;153.30;33.67;;;;;;;-0.40;99.22;102603.91;5031719;28;20440;-42
2022/03/04 07:32:07;;;;;;;111.77;31.73;;;;;;;-0.40;99.58;102602.16;5031578;28;20928;-44
2022/03/04 07:34:35;;;;;;;135.97;32.90;;;;;;;-0.37;99.42;102603.75;5031138;28;20464;-44
2022/03/04 07:37:02;;;;;;;102.37;30.40;;;;;;;-0.39;100.00;102611.72;5031422;28;20431;-48
2022/03/04 07:39:30;;;;;;;103.80;31.30;;;;;;;-0.27;99.49;102610.22;5031209;28;20435;-46
2022/03/04 07:41:58;;;;;;;163.03;31.10;;;;;;;-0.29;99.83;102609.44;5035361;28;20443;-43
2022/03/04 07:44:25;;;;;;;107.93;30.63;;;;;;;-0.32;100.00;102612.22;5034661;28;20985;-41
2022/03/04 07:46:53;;;;;;;159.43;33.77;;;;;;;-0.21;100.00;102609.88;5035285;28;20578;-43
2022/03/04 07:49:22;;;;;;;211.37;37.70;;;;;;;-0.48;100.00;102611.34;5035374;28;20446;-43
2022/03/04 07:51:50;;;;;;;297.17;40.90;;;;;;;-0.46;100.00;102617.34;5035221;28;20833;-43
2022/03/04 07:54:19;;;;;;;231.27;37.90;;;;;;;-0.40;100.00;102614.41;5034667;28;20472;-47
2022/03/04 07:56:46;;;;;;;196.27;39.60;;;;;;;-0.38;100.00;102617.78;5035309;28;20438;-46
2022/03/04 07:59:14;;;;;;;218.90;41.20;;;;;;;-0.32;100.00;102620.06;5035094;28;20440;-46
2022/03/04 08:01:41;;;;;;;162.07;35.83;;;;;;;-0.30;100.00;102613.81;5035072;28;20434;-42
2022/03/04 08:04:11;;;;;;;174.57;39.13;;;;;;;-0.28;100.00;102617.22;5034327;28;20530;-43
2022/03/04 08:06:40;;;;;;;305.73;42.97;;;;;;;-0.24;100.00;102616.13;5034676;28;20511;-44
2022/03/04 08:09:08;;;;;;;158.20;37.70;;;;;;;-0.12;100.00;102615.47;5034942;28;20463;-46
2022/03/04 08:11:40;;;;;;;193.37;38.50;;;;;;;-0.07;100.00;102620.47;5035104;28;20794;-49
2022/03/04 08:14:08;;;;;;;117.93;33.40;;;;;;;-0.07;99.48;102617.84;5034399;28;20838;-45
2022/03/04 08:16:35;;;;;;;283.93;44.13;;;;;;;-0.05;98.93;102610.75;5034720;28;20434;-44
2022/03/04 08:19:05;;;;;;;230.07;40.37;;;;;;;0.07;99.24;102610.06;5034525;28;20432;-44
2022/03/04 08:21:33;;;;;;;180.30;36.70;;;;;;;0.17;99.24;102607.81;5034788;28;20778;-45
2022/03/04 08:24:02;;;;;;;272.57;41.00;;;;;;;0.20;98.67;102608.50;5034055;28;20468;-43
2022/03/04 08:26:29;;;;;;;142.70;36.23;;;;;;;0.17;98.29;102611.28;5034517;28;20566;-45
2022/03/04 08:29:00;;;;;;;80.97;29.60;;;;;;;0.40;99.02;102610.84;5034434;28;20441;-46
2022/03/04 08:31:28;;;;;;;244.17;40.73;;;;;;;0.55;98.76;102604.72;5034422;28;20432;-46
2022/03/04 08:33:56;;;;;;;229.00;42.03;;;;;;;0.47;97.61;102606.97;5033833;28;20474;-43
2022/03/04 08:36:24;;;;;;;204.57;38.73;;;;;;;0.59;97.37;102613.28;5034275;28;20432;-44
2022/03/04 08:38:51;;;;;;;119.43;33.80;;;;;;;0.67;97.73;102611.06;5034284;28;21147;-44
2022/03/04 08:41:21;;;;;;;252.80;39.70;;;;;;;0.83;96.47;102618.91;5034343;28;20875;-45
2022/03/04 08:43:50;;;;;;;177.20;34.20;;;;;;;1.07;97.81;102618.34;5033694;28;20563;-43
2022/03/04 08:46:18;;;;;;;325.40;43.70;;;;;;;1.20;96.76;102625.47;5026384;28;20464;-45
2022/03/04 08:48:46;;;;;;;227.00;37.63;;;;;;;1.23;95.98;102627.94;5033911;28;20531;-46
2022/03/04 08:51:14;;;;;;;136.87;32.37;;;;;;;1.40;95.91;102626.03;5033624;28;21158;-43
2022/03/04 08:53:42;;;;;;;73.43;28.43;;;;;;;1.53;94.99;102628.72;5033589;28;20466;-44
2022/03/04 08:56:09;;;;;;;83.17;29.10;;;;;;;1.35;92.79;102635.94;5034124;28;20432;-46
2022/03/04 08:58:38;;;;;;;50.20;27.07;;;;;;;1.43;93.11;102641.59;5033798;28;20436;-44
2022/03/04 09:01:06;;;;;;;26.37;24.77;;;;;;;1.68;93.99;102643.59;5034073;28;20526;-44
2022/03/04 09:03:34;;;;;;;38.80;28.33;;;;;;;1.86;93.48;102644.25;5033560;28;20510;-45
2022/03/04 09:06:02;;;;;;;74.57;29.43;;;;;;;1.82;91.50;102648.03;5033889;28;20475;-43
2022/03/04 09:08:29;;;;;;;49.20;28.43;;;;;;;1.97;91.50;102654.97;5033978;28;20431;-45
2022/03/04 09:10:58;;;;;;;125.53;33.07;;;;;;;2.04;91.05;102657.13;5033718;28;20445;-45
2022/03/04 09:13:25;;;;;;;93.90;31.13;;;;;;;1.96;89.53;102645.38;5032890;28;20452;-42
2022/03/04 09:15:54;;;;;;;84.43;30.20;;;;;;;1.95;89.58;102656.84;5033789;28;20438;-44
2022/03/04 09:18:22;;;;;;;63.93;29.53;;;;;;;1.98;89.57;102661.91;5033501;28;20490;-44
2022/03/04 09:20:50;;;;;;;33.07;29.87;;;;;;;2.03;90.17;102659.84;5033565;28;20428;-45
2022/03/04 09:23:17;;;;;;;31.10;28.37;;;;;;;2.14;90.87;102660.03;5033015;28;20470;-46
2022/03/04 09:25:45;;;;;;;29.40;26.80;;;;;;;2.34;92.13;102657.00;5033348;28;20533;-49
2022/03/04 09:28:13;;;;;;;30.50;27.70;;;;;;;2.36;90.02;102655.09;5033500;28;20440;-47
2022/03/04 09:30:41;;;;;;;31.20;28.13;;;;;;;2.41;89.02;102655.66;5033545;28;20530;-46
2022/03/04 09:33:10;;;;;;;31.63;28.57;;;;;;;2.45;88.56;102649.25;5033233;28;20464;-45
2022/03/04 09:35:38;;;;;;;34.63;30.90;;;;;;;2.69;90.23;102654.72;5033019;28;20556;-44
2022/03/04 09:38:05;;;;;;;33.07;30.53;;;;;;;2.81;90.14;102650.47;5033288;28;20436;-43
2022/03/04 09:40:33;;;;;;;32.60;30.17;;;;;;;3.02;91.19;102651.66;5033262;28;20440;-47
2022/03/04 09:43:02;;;;;;;35.33;31.63;;;;;;;3.10;89.52;102654.66;5033281;28;20535;-45
2022/03/04 09:45:30;;;;;;;34.07;30.97;;;;;;;3.34;89.78;102661.75;5032635;28;20463;-49
2022/03/04 09:47:58;;;;;;;35.23;32.57;;;;;;;3.63;89.41;102653.69;5032784;28;20845;-49
2022/03/04 09:50:28;;;;;;;35.13;32.67;;;;;;;3.83;89.66;102653.13;5032882;28;20531;-49
2022/03/04 09:52:56;;;;;;;38.10;35.30;;;;;;;3.99;89.53;102653.78;5032930;28;20487;-46
2022/03/04 09:55:24;;;;;;;39.47;36.30;;;;;;;4.15;88.20;102648.25;5032397;28;20555;-45
2022/03/04 09:57:52;;;;;;;37.10;34.40;;;;;;;4.24;85.67;102655.53;5032800;28;20445;-42
2022/03/04 10:00:20;;;;;;;38.97;36.07;;;;;;;4.35;84.63;102647.69;5032976;28;20539;-45
2022/03/04 10:02:48;;;;;;;39.73;36.83;;;;;;;4.50;84.86;102645.72;5031998;28;21092;-44
2022/03/04 10:05:16;;;;;;;40.33;36.97;;;;;;;4.72;83.32;102659.91;5032201;28;20464;-49
2022/03/04 10:07:47;;;;;;;36.93;34.10;;;;;;;4.89;82.19;102648.94;5032424;28;20865;-44
2022/03/04 10:10:17;;;;;;;38.30;35.50;;;;;;;5.31;83.56;102651.97;5032648;28;20480;-47
2022/03/04 10:12:50;;;;;;;38.17;35.53;;;;;;;5.24;79.80;102650.75;5032565;28;20512;-45
2022/03/04 10:15:18;;;;;;;31.37;29.10;;;;;;;5.34;80.35;102654.41;5032280;28;20468;-47
2022/03/04 10:17:58;;;;;;;32.90;30.80;;;;;;;5.36;78.56;102652.47;5032221;28;20523;-42
2022/03/04 10:20:38;;;;;;;36.30;33.57;;;;;;;5.31;78.82;102649.34;5032717;28;20527;-45
2022/03/04 10:23:22;;;;;;;31.60;29.60;;;;;;;5.45;80.33;102651.75;5032376;28;20470;-43
2022/03/04 10:25:52;;;;;;;31.07;29.37;;;;;;;5.40;79.65;102649.50;5032188;28;20476;-44
2022/03/04 10:28:23;;;;;;;28.87;27.37;;;;;;;5.53;79.71;102652.00;5031845;28;20475;-49
2022/03/04 10:30:53;;;;;;;33.20;31.20;;;;;;;5.26;77.14;102651.47;5032500;28;20523;-46
2022/03/04 10:33:22;;;;;;;33.87;31.57;;;;;;;5.35;78.71;102653.41;5031859;28;20814;-46
2022/03/04 10:36:07;;;;;;;35.23;32.73;;;;;;;4.85;76.75;102651.91;5032244;28;20511;-45
2022/03/04 10:38:37;;;;;;;34.83;32.40;;;;;;;4.50;79.86;102651.84;5031965;28;20436;-47
2022/03/04 10:41:21;;;;;;;34.70;32.30;;;;;;;4.55;82.70;102662.94;5032173;28;21001;-46
2022/03/04 10:43:49;;;;;;;34.90;32.60;;;;;;;3.96;83.84;102661.06;5031590;28;20555;-46
2022/03/04 10:46:16;;;;;;;34.07;31.93;;;;;;;3.67;87.80;102656.00;5023985;28;20855;-43
2022/03/04 10:48:52;;;;;;;34.77;32.37;;;;;;;3.70;89.86;102661.06;5031744;28;20527;-44
2022/03/04 10:51:34;;;;;;;32.97;30.67;;;;;;;3.57;90.71;102659.38;5032097;28;20914;-44
2022/03/04 10:54:14;;;;;;;36.93;34.13;;;;;;;3.59;90.15;102666.22;5031527;28;20472;-44
2022/03/04 10:56:49;;;;;;;34.10;31.70;;;;;;;3.47;90.70;102664.41;5032125;28;20455;-50
2022/03/04 10:59:17;;;;;;;36.30;34.00;;;;;;;3.44;90.96;102655.88;5031709;28;20443;-46
2022/03/04 11:01:48;;;;;;;34.57;32.23;;;;;;;3.51;91.19;102659.78;5031694;28;20523;-46
2022/03/04 11:04:18;;;;;;;36.13;33.73;;;;;;;3.56;91.22;102649.75;5031530;28;20472;-47
2022/03/04 11:06:47;;;;;;;36.10;33.77;;;;;;;3.60;91.56;102654.72;5031578;28;20472;-44
2022/03/04 11:09:17;;;;;;;38.97;35.70;;;;;;;3.45;91.63;102658.41;5031557;28;20961;-46
2022/03/04 11:11:45;;;;;;;41.30;37.07;;;;;;;3.46;92.80;102646.94;5032261;28;20471;-46
2022/03/04 11:14:13;;;;;;;37.97;35.30;;;;;;;3.21;95.09;102653.00;5032898;28;20468;-46